Alabama Port, Alabama
Current Conditions -  °F | °C
As of 9:53 AM on Thursday 23 Oct 2014 (Local Time) from KBFM Reporting Station
Clear Clear  
Wind Chill: 16°   Ceiling: Unl
Heat Index: 16°   Visibility: 10mi
Dew Point:   Wind: 9mph
Humidity: 64%   Direction: 30°NNE
Pressure: 30.15"   Gusts: NA
Location:  30.4032°N, 88.1801°W
Report Text: KBFM 231453Z 03008KT 10SM CLR 16/09 A3015 RMK AO2 SLP207 T01610094 51016
Loading
Personal Weather Stations






























Interactive Weather Map
Tropical Storm Tracking
New forecast layout! Learn more

10-Day Weather Forecast

Advertisements
Track Severe Weather on mobile